createdAt,value
2022-09-15T00:00:30.434Z,71.23
2022-09-15T00:02:57.117Z,71.81
2022-09-15T00:05:23.553Z,72.08
2022-09-15T00:07:50.011Z,72.41
2022-09-15T00:10:17.371Z,72.63
2022-09-15T00:12:43.701Z,72.76
2022-09-15T00:15:13.222Z,73.19
2022-09-15T00:17:43.610Z,73.59
2022-09-15T00:20:10.829Z,73.66
2022-09-15T00:22:37.436Z,74.14
2022-09-15T00:25:05.453Z,74.00
2022-09-15T00:27:32.992Z,74.02
2022-09-15T00:29:59.460Z,74.27
2022-09-15T00:32:26.422Z,74.32
2022-09-15T00:34:53.458Z,73.95
2022-09-15T00:37:20.333Z,74.23
2022-09-15T00:39:46.730Z,74.19
2022-09-15T00:42:16.213Z,74.32
2022-09-15T00:44:47.813Z,74.06
2022-09-15T00:47:19.732Z,74.15
2022-09-15T00:49:49.023Z,74.36
2022-09-15T00:52:37.186Z,74.56
2022-09-15T00:55:11.762Z,74.47
2022-09-15T00:57:59.521Z,74.63
2022-09-15T01:00:27.916Z,74.89
2022-09-15T01:02:56.055Z,74.70
2022-09-15T01:05:28.955Z,74.68
2022-09-15T01:08:22.290Z,74.68
2022-09-15T01:10:49.325Z,74.60
2022-09-15T01:13:15.749Z,74.65
2022-09-15T01:16:16.340Z,74.59
2022-09-15T01:18:45.705Z,74.42
2022-09-15T01:21:20.201Z,74.48
2022-09-15T01:24:01.983Z,74.34
2022-09-15T01:26:59.693Z,74.35
2022-09-15T01:29:37.823Z,73.95
2022-09-15T01:32:42.928Z,73.60
2022-09-15T01:35:20.677Z,73.63
2022-09-15T01:37:53.435Z,73.38
2022-09-15T01:40:24.852Z,73.32
2022-09-15T01:42:53.518Z,72.98
2022-09-15T01:45:26.396Z,72.80
2022-09-15T01:47:55.276Z,72.90
2022-09-15T01:50:26.578Z,72.60
2022-09-15T01:52:57.047Z,72.54
2022-09-15T01:55:35.106Z,72.56
2022-09-15T01:58:01.569Z,72.67
2022-09-15T02:00:30.354Z,72.76
2022-09-15T02:03:01.575Z,72.85
2022-09-15T02:05:36.238Z,72.88
2022-09-15T02:08:25.045Z,72.85
2022-09-15T02:11:07.944Z,72.92
2022-09-15T02:13:57.274Z,72.80
2022-09-15T02:16:27.761Z,72.93
2022-09-15T02:19:10.648Z,72.94
2022-09-15T02:22:04.425Z,72.83
2022-09-15T02:25:11.290Z,72.44
2022-09-15T02:27:46.528Z,72.38
2022-09-15T02:30:15.850Z,72.41
2022-09-15T02:32:48.688Z,72.29
2022-09-15T02:35:16.811Z,71.97
2022-09-15T02:37:44.270Z,71.50
2022-09-15T02:40:11.219Z,71.38
2022-09-15T02:42:39.086Z,70.94
2022-09-15T02:45:06.199Z,70.38
2022-09-15T02:47:32.510Z,70.43
2022-09-15T02:49:58.951Z,70.29
2022-09-15T02:52:26.075Z,70.13
2022-09-15T02:54:53.528Z,69.93
2022-09-15T02:57:20.000Z,70.44
2022-09-15T03:00:04.715Z,70.18
2022-09-15T03:02:31.366Z,70.30
2022-09-15T03:05:00.661Z,70.04
2022-09-15T03:07:29.968Z,69.98
2022-09-15T03:09:56.416Z,70.01
2022-09-15T03:12:22.788Z,70.04
2022-09-15T03:14:49.103Z,70.06
2022-09-15T03:17:15.422Z,70.00
2022-09-15T03:19:42.060Z,69.86
2022-09-15T03:22:09.392Z,69.44
2022-09-15T03:24:37.239Z,69.15
2022-09-15T03:27:04.093Z,68.63
2022-09-15T03:29:30.919Z,67.63
2022-09-15T03:31:57.419Z,66.82
2022-09-15T03:34:23.761Z,66.04
2022-09-15T03:36:50.130Z,65.88
2022-09-15T03:39:16.485Z,65.64
2022-09-15T03:41:42.799Z,64.99
2022-09-15T03:44:09.250Z,64.92
2022-09-15T03:46:35.582Z,64.61
2022-09-15T03:49:01.930Z,64.72
2022-09-15T03:51:28.237Z,64.74
2022-09-15T03:53:55.333Z,64.78
2022-09-15T03:56:27.632Z,64.74
2022-09-15T03:58:54.423Z,64.57
2022-09-15T04:01:21.034Z,64.51
2022-09-15T04:03:50.859Z,64.43
2022-09-15T04:06:18.717Z,64.28
2022-09-15T04:08:45.447Z,64.34
2022-09-15T04:11:12.903Z,64.21
2022-09-15T04:13:41.440Z,64.35
2022-09-15T04:16:10.649Z,64.17
2022-09-15T04:18:37.436Z,63.75
2022-09-15T04:21:06.902Z,62.93
2022-09-15T04:23:33.436Z,62.44
2022-09-15T04:26:02.309Z,62.50
2022-09-15T04:28:31.664Z,61.97
2022-09-15T04:31:05.679Z,61.62
2022-09-15T04:33:34.489Z,61.39
2022-09-15T04:36:02.602Z,61.06
2022-09-15T04:38:29.469Z,60.94
2022-09-15T04:40:56.213Z,60.88
2022-09-15T04:43:22.896Z,60.74
2022-09-15T04:45:49.487Z,60.55
2022-09-15T04:48:15.931Z,60.36
2022-09-15T04:50:42.562Z,60.34
2022-09-15T04:53:09.311Z,60.15
2022-09-15T04:55:36.282Z,59.89
2022-09-15T04:58:04.247Z,59.84
2022-09-15T05:00:33.295Z,59.70
2022-09-15T05:03:00.125Z,59.68
2022-09-15T05:05:26.906Z,59.79
2022-09-15T05:07:53.237Z,59.69
2022-09-15T05:10:20.248Z,59.70
2022-09-15T05:12:46.573Z,59.57
2022-09-15T05:15:13.147Z,59.56
2022-09-15T05:17:39.468Z,59.53
2022-09-15T05:20:06.071Z,59.88
2022-09-15T05:22:32.442Z,59.85
2022-09-15T05:24:58.771Z,60.06
2022-09-15T05:27:25.111Z,60.16
2022-09-15T05:30:04.305Z,60.37
2022-09-15T05:32:37.786Z,60.27
2022-09-15T05:35:06.316Z,60.49
2022-09-15T05:37:33.741Z,60.51
2022-09-15T05:40:00.095Z,60.68
2022-09-15T05:42:26.509Z,60.79
2022-09-15T05:44:52.841Z,60.91
2022-09-15T05:47:19.175Z,60.76
2022-09-15T05:49:45.944Z,60.72
2022-09-15T05:52:14.994Z,60.90
2022-09-15T05:54:41.318Z,60.97
2022-09-15T05:57:07.632Z,61.13
2022-09-15T05:59:39.113Z,61.07
2022-09-15T06:02:05.720Z,61.31
2022-09-15T06:04:32.265Z,61.27
2022-09-15T06:06:58.606Z,61.62
2022-09-15T06:09:24.931Z,61.61
2022-09-15T06:11:52.097Z,61.66
2022-09-15T06:14:18.540Z,61.75
2022-09-15T06:16:45.430Z,61.78
2022-09-15T06:19:12.039Z,61.83
2022-09-15T06:21:38.461Z,62.03
2022-09-15T06:24:07.088Z,61.98
2022-09-15T06:26:34.494Z,62.07
2022-09-15T06:29:02.672Z,61.73
2022-09-15T06:31:33.995Z,61.37
2022-09-15T06:34:01.212Z,61.61
2022-09-15T06:36:29.556Z,61.61
2022-09-15T06:38:57.519Z,60.87
2022-09-15T06:41:24.772Z,60.45
2022-09-15T06:43:51.390Z,60.02
2022-09-15T06:46:21.354Z,59.77
2022-09-15T06:48:48.665Z,60.56
2022-09-15T06:51:17.043Z,61.06
2022-09-15T06:53:44.231Z,61.64
2022-09-15T06:56:16.650Z,61.61
2022-09-15T06:58:44.421Z,62.21
2022-09-15T07:01:20.434Z,62.46
2022-09-15T07:03:46.975Z,62.63
2022-09-15T07:06:13.471Z,62.28
2022-09-15T07:08:40.554Z,61.53
2022-09-15T07:11:08.467Z,61.18
2022-09-15T07:13:35.192Z,60.78
2022-09-15T07:16:04.062Z,60.97
2022-09-15T07:18:31.361Z,61.31
2022-09-15T07:21:07.189Z,61.42
2022-09-15T07:23:34.730Z,61.74
2022-09-15T07:26:14.639Z,61.79
2022-09-15T07:28:43.693Z,61.58
2022-09-15T07:31:12.539Z,61.49
2022-09-15T07:33:39.002Z,61.22
2022-09-15T07:36:07.281Z,60.96
2022-09-15T07:38:34.796Z,60.93
2022-09-15T07:41:13.006Z,59.74
2022-09-15T07:43:39.955Z,59.40
2022-09-15T07:46:07.054Z,58.98
2022-09-15T07:48:34.707Z,59.05
2022-09-15T07:51:04.043Z,58.84
2022-09-15T07:53:30.541Z,58.83
2022-09-15T07:55:57.481Z,58.73
2022-09-15T07:58:24.934Z,58.72
2022-09-15T08:00:51.679Z,58.76
2022-09-15T08:03:18.125Z,58.70
2022-09-15T08:05:45.826Z,58.77
2022-09-15T08:08:12.731Z,58.43
2022-09-15T08:10:41.010Z,58.02
2022-09-15T08:13:07.419Z,57.67
2022-09-15T08:15:36.864Z,57.47
2022-09-15T08:18:03.697Z,57.43
2022-09-15T08:20:31.402Z,56.98
2022-09-15T08:22:57.873Z,57.21
2022-09-15T08:25:24.440Z,56.92
2022-09-15T08:27:52.899Z,57.45
2022-09-15T08:30:19.638Z,57.60
2022-09-15T08:32:46.546Z,57.96
2022-09-15T08:35:12.908Z,58.05
2022-09-15T08:37:39.819Z,57.91
2022-09-15T08:40:06.764Z,57.63
2022-09-15T08:42:33.300Z,57.29
2022-09-15T08:45:08.088Z,57.33
2022-09-15T08:47:40.667Z,57.32
2022-09-15T08:50:30.969Z,57.17
2022-09-15T08:53:11.873Z,57.50
2022-09-15T08:55:48.796Z,57.23
2022-09-15T08:58:26.394Z,57.06
2022-09-15T09:01:06.028Z,57.07
2022-09-15T09:03:41.060Z,57.32
2022-09-15T09:06:27.815Z,57.26
2022-09-15T09:09:27.086Z,57.63
2022-09-15T09:12:12.528Z,57.42
2022-09-15T09:14:58.189Z,57.90
2022-09-15T09:17:42.540Z,58.02
2022-09-15T09:20:29.216Z,58.18
2022-09-15T09:22:57.987Z,58.07
2022-09-15T09:25:28.502Z,57.61
2022-09-15T09:27:58.176Z,57.21
2022-09-15T09:30:27.670Z,56.97
2022-09-15T09:33:24.838Z,56.20
2022-09-15T09:35:52.345Z,56.59
2022-09-15T09:38:46.293Z,56.20
2022-09-15T09:41:16.794Z,56.30
2022-09-15T09:43:47.326Z,55.93
2022-09-15T09:46:16.289Z,55.95
2022-09-15T09:48:56.361Z,55.59
2022-09-15T09:51:34.344Z,56.47
2022-09-15T09:54:20.614Z,58.16
2022-09-15T09:56:49.304Z,59.17
2022-09-15T09:59:44.263Z,60.59
2022-09-15T10:02:13.542Z,62.08
2022-09-15T10:04:45.277Z,63.40
2022-09-15T10:07:12.977Z,63.88
2022-09-15T10:09:40.052Z,64.45
2022-09-15T10:12:07.364Z,64.57
2022-09-15T10:14:40.231Z,64.88
2022-09-15T10:17:15.679Z,64.54
2022-09-15T10:19:48.801Z,63.29
2022-09-15T10:22:25.844Z,61.51
2022-09-15T10:24:53.128Z,59.46
2022-09-15T10:27:32.722Z,58.80
2022-09-15T10:30:16.513Z,57.93
2022-09-15T10:32:43.174Z,56.87
2022-09-15T10:35:13.854Z,56.72
2022-09-15T10:38:08.818Z,56.16
2022-09-15T10:41:12.414Z,53.85
2022-09-15T10:44:02.969Z,52.35
2022-09-15T10:46:58.297Z,51.85
2022-09-15T10:49:46.339Z,50.89
2022-09-15T10:52:31.448Z,49.92
2022-09-15T10:55:04.053Z,50.67
2022-09-15T10:57:51.955Z,48.89
2022-09-15T11:00:24.033Z,46.85
2022-09-15T11:03:21.546Z,45.89
2022-09-15T11:06:13.927Z,43.91
2022-09-15T11:08:49.909Z,44.17
2022-09-15T11:11:32.056Z,44.55
2022-09-15T11:14:16.395Z,44.64
2022-09-15T11:17:13.651Z,44.41
2022-09-15T11:19:58.804Z,43.24
2022-09-15T11:22:29.515Z,41.87
2022-09-15T11:25:03.536Z,40.06
2022-09-15T11:27:42.381Z,38.32
2022-09-15T11:30:20.409Z,36.19
2022-09-15T11:33:11.118Z,34.82
2022-09-15T11:35:50.048Z,33.73
2022-09-15T11:38:38.408Z,33.73
2022-09-15T11:41:11.459Z,33.09
2022-09-15T11:43:47.433Z,32.47
2022-09-15T11:46:21.188Z,32.63
2022-09-15T11:49:00.717Z,32.37
2022-09-15T11:51:31.839Z,31.94
2022-09-15T11:54:05.476Z,31.49
2022-09-15T11:56:42.774Z,32.09
2022-09-15T11:59:32.575Z,32.94
2022-09-15T12:02:44.011Z,34.24
2022-09-15T12:05:17.412Z,34.66
2022-09-15T12:07:54.643Z,35.83
2022-09-15T12:10:28.293Z,36.07
2022-09-15T12:12:55.549Z,36.02
2022-09-15T12:15:27.245Z,35.78
2022-09-15T12:18:34.850Z,36.45
2022-09-15T12:21:16.309Z,37.42
2022-09-15T12:23:54.863Z,38.42
2022-09-15T12:26:25.115Z,38.92
2022-09-15T12:28:57.672Z,39.98
2022-09-15T12:31:39.238Z,43.79
2022-09-15T12:34:24.293Z,47.07
2022-09-15T12:36:53.819Z,49.20
2022-09-15T12:39:29.010Z,49.23
2022-09-15T12:42:04.380Z,50.40
2022-09-15T12:44:42.897Z,51.87
2022-09-15T12:47:33.994Z,51.47
2022-09-15T12:50:15.561Z,51.42
2022-09-15T12:52:49.785Z,50.04
2022-09-15T12:55:32.831Z,48.79
2022-09-15T12:58:01.633Z,48.66
2022-09-15T13:00:28.815Z,47.22
2022-09-15T13:02:55.896Z,45.39
2022-09-15T13:05:40.930Z,44.69
2022-09-15T13:08:34.652Z,42.01
2022-09-15T13:11:04.564Z,41.62
2022-09-15T13:13:39.378Z,42.07
2022-09-15T13:16:14.804Z,41.77
2022-09-15T13:18:43.278Z,41.74
2022-09-15T13:21:15.565Z,41.72
2022-09-15T13:23:47.916Z,41.04
2022-09-15T13:26:22.536Z,40.95
2022-09-15T13:28:52.726Z,40.85
2022-09-15T13:31:43.390Z,40.88
2022-09-15T13:41:16.400Z,40.44
2022-09-15T13:44:04.334Z,40.74
2022-09-15T13:46:53.190Z,40.77
2022-09-15T13:49:35.617Z,42.71
2022-09-15T13:52:23.276Z,46.35
2022-09-15T13:55:10.225Z,45.43
2022-09-15T14:00:48.180Z,46.05
2022-09-15T14:03:20.342Z,46.07
2022-09-15T14:05:46.814Z,45.47
2022-09-15T14:08:17.645Z,45.34
2022-09-15T14:11:11.062Z,45.01
2022-09-15T14:13:43.421Z,44.88
2022-09-15T14:16:30.117Z,44.37
2022-09-15T14:19:02.094Z,43.96
2022-09-15T14:21:33.670Z,44.28
2022-09-15T14:24:05.904Z,43.94
2022-09-15T14:26:35.366Z,43.81
2022-09-15T14:29:05.686Z,43.79
2022-09-15T14:31:42.911Z,43.77
2022-09-15T14:34:19.850Z,43.90
2022-09-15T14:36:54.010Z,43.83
2022-09-15T14:39:30.361Z,44.21
2022-09-15T14:41:56.883Z,44.03
2022-09-15T14:47:25.836Z,44.88
2022-09-15T14:50:08.037Z,45.31
2022-09-15T14:52:39.356Z,45.44
2022-09-15T14:55:12.482Z,45.42
2022-09-15T14:57:41.444Z,45.58
2022-09-15T15:00:14.836Z,45.72
2022-09-15T15:03:18.216Z,45.76
2022-09-15T15:05:54.663Z,45.47
2022-09-15T15:08:41.853Z,44.98
2022-09-15T15:11:10.863Z,44.36
2022-09-15T15:13:42.486Z,44.50
2022-09-15T15:16:20.217Z,44.36
2022-09-15T15:18:46.679Z,44.52
2022-09-15T15:21:50.759Z,44.89
2022-09-15T15:24:23.093Z,48.86
2022-09-15T15:26:50.975Z,51.46
2022-09-15T15:29:40.155Z,54.60
2022-09-15T15:32:12.441Z,56.30
2022-09-15T15:34:39.003Z,56.87
2022-09-15T15:37:16.317Z,57.75
2022-09-15T15:39:46.187Z,58.40
2022-09-15T15:42:15.890Z,58.10
2022-09-15T15:45:05.195Z,57.27
2022-09-15T15:47:35.847Z,58.03
2022-09-15T15:50:14.041Z,58.72
2022-09-15T15:52:43.684Z,57.27
2022-09-15T15:55:14.372Z,57.21
2022-09-15T15:57:40.805Z,57.50
2022-09-15T16:00:21.287Z,57.37
2022-09-15T16:02:48.576Z,56.42
2022-09-15T16:05:20.464Z,56.12
2022-09-15T16:07:50.205Z,55.85
2022-09-15T16:10:19.081Z,55.91
2022-09-15T16:12:45.516Z,55.62
2022-09-15T16:15:17.821Z,55.11
2022-09-15T16:17:46.845Z,55.10
2022-09-15T16:20:15.813Z,54.99
2022-09-15T16:22:43.681Z,54.77
2022-09-15T16:25:18.206Z,54.48
2022-09-15T16:27:44.615Z,55.31
2022-09-15T16:30:12.137Z,56.87
2022-09-15T16:32:40.078Z,57.98
2022-09-15T16:35:36.546Z,58.71
2022-09-15T16:38:03.443Z,58.88
2022-09-15T16:40:29.846Z,58.59
2022-09-15T16:42:56.359Z,58.22
2022-09-15T16:45:36.678Z,57.95
2022-09-15T16:48:06.497Z,57.69
2022-09-15T16:50:33.113Z,57.48
2022-09-15T16:52:59.533Z,57.32
2022-09-15T16:55:31.874Z,56.73
2022-09-15T16:57:59.739Z,56.71
2022-09-15T17:00:27.788Z,56.68
2022-09-15T17:02:54.213Z,56.33
2022-09-15T17:05:28.090Z,56.23
2022-09-15T17:07:54.777Z,56.23
2022-09-15T17:10:21.319Z,56.25
2022-09-15T17:12:50.913Z,56.37
2022-09-15T17:15:36.187Z,56.13
2022-09-15T17:18:02.729Z,55.65
2022-09-15T17:20:29.339Z,55.52
2022-09-15T17:22:55.679Z,55.11
2022-09-15T17:25:26.968Z,55.30
2022-09-15T17:27:54.125Z,55.01
2022-09-15T17:30:22.219Z,54.99
2022-09-15T17:32:49.494Z,54.87
2022-09-15T17:35:24.634Z,55.03
2022-09-15T17:37:52.088Z,55.00
2022-09-15T17:40:20.891Z,55.27
2022-09-15T17:42:49.082Z,55.24
2022-09-15T17:45:21.986Z,55.20
2022-09-15T17:47:49.038Z,55.07
2022-09-15T17:50:20.703Z,55.27
2022-09-15T17:52:48.329Z,55.19
2022-09-15T17:55:41.653Z,55.19
2022-09-15T17:58:08.494Z,55.12
2022-09-15T18:00:40.746Z,55.21
2022-09-15T18:03:29.891Z,55.62
2022-09-15T18:05:58.478Z,57.07
2022-09-15T18:08:25.808Z,58.46
2022-09-15T18:10:52.421Z,60.13
2022-09-15T18:13:21.482Z,61.06
2022-09-15T18:15:49.097Z,62.19
2022-09-15T18:18:21.252Z,63.52
2022-09-15T18:20:49.897Z,63.98
2022-09-15T18:23:23.843Z,65.60
2022-09-15T18:25:51.264Z,67.09
2022-09-15T18:28:18.692Z,69.07
2022-09-15T18:30:47.672Z,71.30
2022-09-15T18:33:32.236Z,72.00
2022-09-15T18:35:59.122Z,71.69
2022-09-15T18:38:26.328Z,72.13
2022-09-15T18:40:56.021Z,73.37
2022-09-15T18:43:28.065Z,73.60
2022-09-15T18:45:59.401Z,74.28
2022-09-15T18:48:26.359Z,74.51
2022-09-15T18:50:53.562Z,74.73
2022-09-15T18:53:19.938Z,75.02
2022-09-15T18:55:47.318Z,74.87
2022-09-15T18:58:13.828Z,75.00
2022-09-15T19:00:40.657Z,75.30
2022-09-15T19:03:09.452Z,75.65
2022-09-15T19:05:36.237Z,75.57
2022-09-15T19:08:03.499Z,75.43
2022-09-15T19:10:30.263Z,75.46
2022-09-15T19:12:56.723Z,75.54
2022-09-15T19:15:24.314Z,75.44
2022-09-15T19:17:51.116Z,76.02
2022-09-15T19:20:21.453Z,76.20
2022-09-15T19:22:51.687Z,75.84
2022-09-15T19:25:18.598Z,76.22
2022-09-15T19:27:45.023Z,76.42
2022-09-15T19:30:12.408Z,76.37
2022-09-15T19:32:42.643Z,76.28
2022-09-15T19:35:11.227Z,76.42
2022-09-15T19:37:39.744Z,77.23
2022-09-15T19:40:12.610Z,78.00
2022-09-15T19:42:41.716Z,78.19
2022-09-15T19:45:11.156Z,78.21
2022-09-15T19:47:38.449Z,77.97
2022-09-15T19:50:06.812Z,78.49
2022-09-15T19:52:33.612Z,79.10
2022-09-15T19:55:00.535Z,79.58
2022-09-15T19:57:29.800Z,79.84
2022-09-15T19:59:56.285Z,80.25
2022-09-15T20:02:22.647Z,80.53
2022-09-15T20:04:50.293Z,80.31
2022-09-15T20:07:16.653Z,80.12
2022-09-15T20:09:42.985Z,80.38
2022-09-15T20:12:09.488Z,79.96
2022-09-15T20:14:35.897Z,79.96
2022-09-15T20:17:02.558Z,79.79
2022-09-15T20:19:29.844Z,79.12
2022-09-15T20:21:56.230Z,79.54
2022-09-15T20:24:24.284Z,78.77
2022-09-15T20:26:51.318Z,78.75
2022-09-15T20:29:23.466Z,78.89
2022-09-15T20:31:49.879Z,78.71
2022-09-15T20:34:18.522Z,78.90
2022-09-15T20:36:45.457Z,79.53
2022-09-15T20:39:14.444Z,79.54
2022-09-15T20:41:44.931Z,79.38
2022-09-15T20:44:15.416Z,79.62
2022-09-15T20:46:42.170Z,79.74
2022-09-15T20:49:09.272Z,79.86
2022-09-15T20:51:35.939Z,79.82
2022-09-15T20:54:04.191Z,79.98
2022-09-15T20:56:34.761Z,79.99
2022-09-15T20:59:01.912Z,79.85
2022-09-15T21:01:38.742Z,80.03
2022-09-15T21:04:06.588Z,80.13
2022-09-15T21:06:34.061Z,80.04
2022-09-15T21:09:00.956Z,80.13
2022-09-15T21:11:28.532Z,80.43
2022-09-15T21:13:56.344Z,80.28
2022-09-15T21:16:28.623Z,80.14
2022-09-15T21:18:57.399Z,79.72
2022-09-15T21:21:26.527Z,80.00
2022-09-15T21:23:55.783Z,80.36
2022-09-15T21:26:30.794Z,80.40
2022-09-15T21:28:57.757Z,80.50
2022-09-15T21:31:29.881Z,80.31
2022-09-15T21:34:07.711Z,80.34
2022-09-15T21:36:34.258Z,80.49
2022-09-15T21:39:02.952Z,80.42
2022-09-15T21:41:32.546Z,80.89
2022-09-15T21:44:00.548Z,80.89
2022-09-15T21:46:29.691Z,80.75
2022-09-15T21:49:07.016Z,80.91
2022-09-15T21:51:33.896Z,81.17
2022-09-15T21:54:00.770Z,81.09
2022-09-15T21:56:29.035Z,81.08
2022-09-15T21:58:57.978Z,80.92
2022-09-15T22:01:31.774Z,80.69
2022-09-15T22:04:06.387Z,80.45
2022-09-15T22:06:35.410Z,80.38
2022-09-15T22:09:05.614Z,80.33
2022-09-15T22:11:32.673Z,80.07
2022-09-15T22:14:01.772Z,80.10
2022-09-15T22:16:28.874Z,80.09
2022-09-15T22:18:55.462Z,79.65
2022-09-15T22:21:25.923Z,80.02
2022-09-15T22:23:57.961Z,80.13
2022-09-15T22:26:28.229Z,80.40
2022-09-15T22:28:55.481Z,80.53
2022-09-15T22:31:23.496Z,80.34
2022-09-15T22:33:50.471Z,80.24
2022-09-15T22:36:35.011Z,80.62
2022-09-15T22:39:05.680Z,80.77
2022-09-15T22:41:39.221Z,80.90
2022-09-15T22:44:12.782Z,81.24
2022-09-15T22:46:45.567Z,81.78
2022-09-15T22:49:12.476Z,81.67
2022-09-15T22:51:38.804Z,81.73
2022-09-15T22:54:05.287Z,81.77
2022-09-15T22:56:31.696Z,81.26
2022-09-15T22:58:58.420Z,80.59
2022-09-15T23:01:28.301Z,80.70
2022-09-15T23:03:57.056Z,80.79
2022-09-15T23:06:24.777Z,80.60
2022-09-15T23:08:53.025Z,80.57
2022-09-15T23:11:19.930Z,80.35
2022-09-15T23:13:46.539Z,80.55
2022-09-15T23:16:12.933Z,80.54
2022-09-15T23:18:39.389Z,80.87
2022-09-15T23:21:10.651Z,80.78
2022-09-15T23:23:41.801Z,80.79
2022-09-15T23:26:10.515Z,80.79
2022-09-15T23:28:39.117Z,80.74
2022-09-15T23:31:07.090Z,80.78
2022-09-15T23:33:33.639Z,80.73
2022-09-15T23:36:05.841Z,80.95
2022-09-15T23:38:35.797Z,81.11
2022-09-15T23:41:05.861Z,81.27
2022-09-15T23:43:33.209Z,81.26
2022-09-15T23:46:00.349Z,81.43
2022-09-15T23:48:27.021Z,81.16
2022-09-15T23:50:56.144Z,81.42
2022-09-15T23:53:22.562Z,81.83
2022-09-15T23:55:48.939Z,81.83
2022-09-15T23:58:15.847Z,81.71
